sensor_id;sensor_type;location;lat;lon;timestamp;pressure;altitude;pressure_sealevel;temperature;humidity
72359;BME280;60317;48.880;-0.862;2023-03-01T00:01:34;101557.81;;;21.33;27.72
72359;BME280;60317;48.880;-0.862;2023-03-01T00:04:00;101545.66;;;21.40;27.28
72359;BME280;60317;48.880;-0.862;2023-03-01T00:06:27;101550.00;;;21.54;27.14
72359;BME280;60317;48.880;-0.862;2023-03-01T00:08:55;101544.69;;;21.65;27.05
72359;BME280;60317;48.880;-0.862;2023-03-01T00:11:23;101541.28;;;21.99;26.71
72359;BME280;60317;48.880;-0.862;2023-03-01T00:13:53;101543.63;;;21.79;26.69
72359;BME280;60317;48.880;-0.862;2023-03-01T00:16:22;101544.28;;;21.22;27.50
72359;BME280;60317;48.880;-0.862;2023-03-01T00:18:50;101548.69;;;21.23;27.48
72359;BME280;60317;48.880;-0.862;2023-03-01T00:21:17;101538.69;;;21.25;27.38
72359;BME280;60317;48.880;-0.862;2023-03-01T00:23:45;101543.63;;;21.31;27.40
72359;BME280;60317;48.880;-0.862;2023-03-01T00:26:13;101540.41;;;21.39;27.10
72359;BME280;60317;48.880;-0.862;2023-03-01T00:28:40;101534.63;;;21.56;26.83
72359;BME280;60317;48.880;-0.862;2023-03-01T00:31:09;101548.88;;;21.46;27.25
72359;BME280;60317;48.880;-0.862;2023-03-01T00:33:36;101541.38;;;21.38;27.12
72359;BME280;60317;48.880;-0.862;2023-03-01T00:36:05;101541.66;;;21.70;26.74
72359;BME280;60317;48.880;-0.862;2023-03-01T00:38:34;101544.56;;;21.43;27.13
72359;BME280;60317;48.880;-0.862;2023-03-01T00:41:04;101545.06;;;21.24;27.28
72359;BME280;60317;48.880;-0.862;2023-03-01T00:43:31;101537.16;;;21.10;27.42
72359;BME280;60317;48.880;-0.862;2023-03-01T00:46:00;101542.88;;;21.29;27.11
72359;BME280;60317;48.880;-0.862;2023-03-01T00:48:27;101547.13;;;21.44;27.03
72359;BME280;60317;48.880;-0.862;2023-03-01T00:50:53;101538.59;;;21.99;26.36
72359;BME280;60317;48.880;-0.862;2023-03-01T00:53:21;101540.28;;;22.00;26.28
72359;BME280;60317;48.880;-0.862;2023-03-01T00:55:48;101534.50;;;21.93;26.25
72359;BME280;60317;48.880;-0.862;2023-03-01T00:58:14;101537.38;;;22.03;26.26
72359;BME280;60317;48.880;-0.862;2023-03-01T01:00:41;101538.44;;;22.00;26.28
72359;BME280;60317;48.880;-0.862;2023-03-01T01:03:08;101536.28;;;22.05;26.40
72359;BME280;60317;48.880;-0.862;2023-03-01T01:05:35;101524.91;;;22.02;26.26
72359;BME280;60317;48.880;-0.862;2023-03-01T01:08:01;101536.47;;;22.26;25.81
72359;BME280;60317;48.880;-0.862;2023-03-01T01:10:29;101534.56;;;22.39;25.55
72359;BME280;60317;48.880;-0.862;2023-03-01T01:12:56;101539.44;;;22.46;25.60
72359;BME280;60317;48.880;-0.862;2023-03-01T01:15:22;101532.47;;;22.54;25.56
72359;BME280;60317;48.880;-0.862;2023-03-01T01:17:49;101535.88;;;22.56;25.54
72359;BME280;60317;48.880;-0.862;2023-03-01T01:20:15;101537.00;;;22.54;25.49
72359;BME280;60317;48.880;-0.862;2023-03-01T01:22:42;101535.88;;;22.56;25.53
72359;BME280;60317;48.880;-0.862;2023-03-01T01:25:09;101545.81;;;22.45;25.92
72359;BME280;60317;48.880;-0.862;2023-03-01T01:27:37;101541.41;;;22.44;25.80
72359;BME280;60317;48.880;-0.862;2023-03-01T01:30:04;101537.00;;;22.54;25.43
72359;BME280;60317;48.880;-0.862;2023-03-01T01:32:31;101539.94;;;22.62;25.30
72359;BME280;60317;48.880;-0.862;2023-03-01T01:34:58;101533.56;;;22.74;24.69
72359;BME280;60317;48.880;-0.862;2023-03-01T01:37:25;101531.63;;;22.76;24.91
72359;BME280;60317;48.880;-0.862;2023-03-01T01:39:51;101528.69;;;22.79;25.12
72359;BME280;60317;48.880;-0.862;2023-03-01T01:42:18;101533.72;;;22.95;24.99
72359;BME280;60317;48.880;-0.862;2023-03-01T01:44:46;101531.84;;;23.18;24.68
72359;BME280;60317;48.880;-0.862;2023-03-01T01:47:15;101531.25;;;22.81;25.00
72359;BME280;60317;48.880;-0.862;2023-03-01T01:49:45;101520.56;;;22.57;25.42
72359;BME280;60317;48.880;-0.862;2023-03-01T01:52:14;101523.31;;;22.68;25.21
72359;BME280;60317;48.880;-0.862;2023-03-01T01:54:46;101531.91;;;22.96;24.61
72359;BME280;60317;48.880;-0.862;2023-03-01T01:57:19;101527.22;;;22.98;24.71
72359;BME280;60317;48.880;-0.862;2023-03-01T01:59:51;101521.34;;;23.04;24.65
72359;BME280;60317;48.880;-0.862;2023-03-01T02:02:19;101523.81;;;22.96;25.01
72359;BME280;60317;48.880;-0.862;2023-03-01T02:04:46;101528.22;;;22.97;24.91
72359;BME280;60317;48.880;-0.862;2023-03-01T02:07:16;101523.78;;;23.07;24.65
72359;BME280;60317;48.880;-0.862;2023-03-01T02:09:45;101525.72;;;23.16;24.68
72359;BME280;60317;48.880;-0.862;2023-03-01T02:12:14;101517.25;;;23.09;24.68
72359;BME280;60317;48.880;-0.862;2023-03-01T02:14:40;101516.91;;;22.92;25.05
72359;BME280;60317;48.880;-0.862;2023-03-01T02:17:09;101508.34;;;22.75;25.14
72359;BME280;60317;48.880;-0.862;2023-03-01T02:19:44;101518.13;;;22.99;24.88
72359;BME280;60317;48.880;-0.862;2023-03-01T02:22:22;101510.66;;;23.02;24.65
72359;BME280;60317;48.880;-0.862;2023-03-01T02:25:01;101505.97;;;23.16;24.44
72359;BME280;60317;48.880;-0.862;2023-03-01T02:27:38;101500.34;;;23.19;24.62
72359;BME280;60317;48.880;-0.862;2023-03-01T02:30:09;101504.38;;;23.24;24.30
72359;BME280;60317;48.880;-0.862;2023-03-01T02:32:36;101504.38;;;23.24;24.48
72359;BME280;60317;48.880;-0.862;2023-03-01T02:35:02;101502.16;;;23.29;24.47
72359;BME280;60317;48.880;-0.862;2023-03-01T02:37:29;101508.06;;;23.12;24.52
72359;BME280;60317;48.880;-0.862;2023-03-01T02:39:59;101509.72;;;22.92;24.81
72359;BME280;60317;48.880;-0.862;2023-03-01T02:42:30;101507.88;;;22.93;24.83
72359;BME280;60317;48.880;-0.862;2023-03-01T02:44:58;101507.56;;;23.18;24.39
72359;BME280;60317;48.880;-0.862;2023-03-01T02:47:26;101506.31;;;23.33;24.31
72359;BME280;60317;48.880;-0.862;2023-03-01T02:49:52;101499.69;;;23.26;24.20
72359;BME280;60317;48.880;-0.862;2023-03-01T02:52:27;101493.81;;;23.32;24.22
72359;BME280;60317;48.880;-0.862;2023-03-01T02:55:00;101498.34;;;23.32;24.28
72359;BME280;60317;48.880;-0.862;2023-03-01T02:57:30;101498.47;;;23.30;24.23
72359;BME280;60317;48.880;-0.862;2023-03-01T03:00:01;101492.06;;;23.43;23.97
72359;BME280;60317;48.880;-0.862;2023-03-01T03:02:30;101488.19;;;23.24;24.42
72359;BME280;60317;48.880;-0.862;2023-03-01T03:04:57;101488.13;;;23.03;24.55
72359;BME280;60317;48.880;-0.862;2023-03-01T03:07:23;101482.84;;;23.02;24.46
72359;BME280;60317;48.880;-0.862;2023-03-01T03:09:50;101488.16;;;23.36;24.19
72359;BME280;60317;48.880;-0.862;2023-03-01T03:12:17;101479.94;;;23.37;24.12
72359;BME280;60317;48.880;-0.862;2023-03-01T03:14:44;101473.16;;;23.43;23.87
72359;BME280;60317;48.880;-0.862;2023-03-01T03:17:10;101475.28;;;23.39;24.01
72359;BME280;60317;48.880;-0.862;2023-03-01T03:19:38;101481.66;;;23.38;24.16
72359;BME280;60317;48.880;-0.862;2023-03-01T03:22:05;101478.66;;;23.52;23.82
72359;BME280;60317;48.880;-0.862;2023-03-01T03:24:31;101473.38;;;23.51;23.78
72359;BME280;60317;48.880;-0.862;2023-03-01T03:26:58;101472.44;;;23.41;24.14
72359;BME280;60317;48.880;-0.862;2023-03-01T03:29:24;101483.81;;;23.12;24.53
72359;BME280;60317;48.880;-0.862;2023-03-01T03:31:51;101478.06;;;23.05;24.26
72359;BME280;60317;48.880;-0.862;2023-03-01T03:34:18;101472.28;;;23.21;24.09
72359;BME280;60317;48.880;-0.862;2023-03-01T03:36:46;101461.13;;;23.47;23.65
72359;BME280;60317;48.880;-0.862;2023-03-01T03:39:12;101466.28;;;23.50;23.70
72359;BME280;60317;48.880;-0.862;2023-03-01T03:41:39;101465.81;;;23.45;23.75
72359;BME280;60317;48.880;-0.862;2023-03-01T03:44:05;101456.84;;;23.44;23.61
72359;BME280;60317;48.880;-0.862;2023-03-01T03:46:32;101460.97;;;23.60;23.76
72359;BME280;60317;48.880;-0.862;2023-03-01T03:48:59;101455.22;;;23.53;23.77
72359;BME280;60317;48.880;-0.862;2023-03-01T03:51:25;101447.19;;;23.42;24.00
72359;BME280;60317;48.880;-0.862;2023-03-01T03:53:53;101450.69;;;23.21;24.38
72359;BME280;60317;48.880;-0.862;2023-03-01T03:56:20;101455.34;;;23.19;24.16
72359;BME280;60317;48.880;-0.862;2023-03-01T03:58:46;101451.91;;;23.28;23.90
72359;BME280;60317;48.880;-0.862;2023-03-01T04:01:13;101444.94;;;23.47;23.85
72359;BME280;60317;48.880;-0.862;2023-03-01T04:03:39;101440.53;;;23.46;23.59
72359;BME280;60317;48.880;-0.862;2023-03-01T04:06:06;101430.44;;;23.59;23.68
72359;BME280;60317;48.880;-0.862;2023-03-01T04:08:33;101434.50;;;23.53;23.69
72359;BME280;60317;48.880;-0.862;2023-03-01T04:11:03;101434.09;;;23.58;23.52
72359;BME280;60317;48.880;-0.862;2023-03-01T04:13:30;101437.13;;;23.65;23.52
72359;BME280;60317;48.880;-0.862;2023-03-01T04:15:56;101431.38;;;23.58;23.70
72359;BME280;60317;48.880;-0.862;2023-03-01T04:18:23;101431.63;;;23.34;24.37
72359;BME280;60317;48.880;-0.862;2023-03-01T04:20:50;101427.38;;;23.31;23.92
72359;BME280;60317;48.880;-0.862;2023-03-01T04:23:18;101430.41;;;23.38;23.59
72359;BME280;60317;48.880;-0.862;2023-03-01T04:25:46;101417.97;;;23.47;23.66
72359;BME280;60317;48.880;-0.862;2023-03-01T04:28:15;101412.91;;;23.53;23.42
72359;BME280;60317;48.880;-0.862;2023-03-01T04:30:42;101414.00;;;23.51;23.58
72359;BME280;60317;48.880;-0.862;2023-03-01T04:33:09;101416.72;;;23.51;23.63
72359;BME280;60317;48.880;-0.862;2023-03-01T04:35:37;101412.72;;;23.66;23.35
72359;BME280;60317;48.880;-0.862;2023-03-01T04:38:04;101410.13;;;23.65;23.38
72359;BME280;60317;48.880;-0.862;2023-03-01T04:40:32;101406.72;;;23.63;23.54
72359;BME280;60317;48.880;-0.862;2023-03-01T04:42:59;101406.72;;;23.42;23.83
72359;BME280;60317;48.880;-0.862;2023-03-01T04:45:27;101403.91;;;23.11;24.03
72359;BME280;60317;48.880;-0.862;2023-03-01T04:47:53;101403.09;;;23.31;24.04
72359;BME280;60317;48.880;-0.862;2023-03-01T04:50:20;101407.38;;;23.55;23.48
72359;BME280;60317;48.880;-0.862;2023-03-01T04:52:47;101403.69;;;23.56;23.42
72359;BME280;60317;48.880;-0.862;2023-03-01T04:55:14;101399.59;;;23.62;23.33
72359;BME280;60317;48.880;-0.862;2023-03-01T04:57:41;101396.91;;;23.62;23.25
72359;BME280;60317;48.880;-0.862;2023-03-01T05:00:11;101393.72;;;23.68;23.29
72359;BME280;60317;48.880;-0.862;2023-03-01T05:02:39;101389.28;;;23.67;23.28
72359;BME280;60317;48.880;-0.862;2023-03-01T05:05:06;101394.44;;;23.70;23.35
72359;BME280;60317;48.880;-0.862;2023-03-01T05:07:33;101384.41;;;23.40;23.93
72359;BME280;60317;48.880;-0.862;2023-03-01T05:09:59;101396.16;;;23.18;23.96
72359;BME280;60317;48.880;-0.862;2023-03-01T05:12:26;101396.84;;;23.31;23.57
72359;BME280;60317;48.880;-0.862;2023-03-01T05:14:52;101395.72;;;23.54;23.32
72359;BME280;60317;48.880;-0.862;2023-03-01T05:17:19;101389.47;;;23.54;23.21
72359;BME280;60317;48.880;-0.862;2023-03-01T05:19:47;101398.03;;;23.59;23.04
72359;BME280;60317;48.880;-0.862;2023-03-01T05:22:13;101395.16;;;23.72;23.00
72359;BME280;60317;48.880;-0.862;2023-03-01T05:24:40;101392.72;;;23.69;23.28
72359;BME280;60317;48.880;-0.862;2023-03-01T05:27:06;101395.22;;;23.81;23.08
72359;BME280;60317;48.880;-0.862;2023-03-01T05:29:33;101397.75;;;23.62;23.18
72359;BME280;60317;48.880;-0.862;2023-03-01T05:32:00;101391.75;;;23.38;23.74
72359;BME280;60317;48.880;-0.862;2023-03-01T05:34:29;101406.16;;;23.27;23.78
72359;BME280;60317;48.880;-0.862;2023-03-01T05:36:58;101404.78;;;23.32;23.48
72359;BME280;60317;48.880;-0.862;2023-03-01T05:39:27;101409.94;;;23.56;23.28
72359;BME280;60317;48.880;-0.862;2023-03-01T05:41:55;101400.56;;;23.72;22.91
72359;BME280;60317;48.880;-0.862;2023-03-01T05:44:22;101405.00;;;23.62;23.12
72359;BME280;60317;48.880;-0.862;2023-03-01T05:46:49;101395.47;;;23.78;23.09
72359;BME280;60317;48.880;-0.862;2023-03-01T05:49:16;101404.06;;;23.84;23.08
72359;BME280;60317;48.880;-0.862;2023-03-01T05:51:47;101395.22;;;23.81;23.13
72359;BME280;60317;48.880;-0.862;2023-03-01T05:54:15;101393.72;;;23.68;23.08
72359;BME280;60317;48.880;-0.862;2023-03-01T05:56:42;101391.91;;;23.57;23.16
72359;BME280;60317;48.880;-0.862;2023-03-01T05:59:08;101383.47;;;23.29;23.73
72359;BME280;60317;48.880;-0.862;2023-03-01T06:01:35;101390.38;;;23.43;23.45
72359;BME280;60317;48.880;-0.862;2023-03-01T06:04:02;101396.19;;;23.60;23.20
72359;BME280;60317;48.880;-0.862;2023-03-01T06:06:33;101398.13;;;23.69;23.07
72359;BME280;60317;48.880;-0.862;2023-03-01T06:09:00;101390.03;;;23.69;22.97
72359;BME280;60317;48.880;-0.862;2023-03-01T06:11:28;101392.56;;;23.28;24.08
72359;BME280;60317;48.880;-0.862;2023-03-01T06:13:54;101384.03;;;22.69;26.58
72359;BME280;60317;48.880;-0.862;2023-03-01T06:16:21;101392.25;;;22.00;27.82
72359;BME280;60317;48.880;-0.862;2023-03-01T06:18:48;101392.25;;;22.00;27.11
72359;BME280;60317;48.880;-0.862;2023-03-01T06:21:14;101395.06;;;22.66;25.97
72359;BME280;60317;48.880;-0.862;2023-03-01T06:23:41;101384.34;;;22.98;25.42
72359;BME280;60317;48.880;-0.862;2023-03-01T06:26:08;101379.25;;;23.37;24.57
72359;BME280;60317;48.880;-0.862;2023-03-01T06:28:36;101382.13;;;23.03;24.98
72359;BME280;60317;48.880;-0.862;2023-03-01T06:31:03;101370.31;;;23.36;24.31
72359;BME280;60317;48.880;-0.862;2023-03-01T06:33:29;101378.41;;;23.57;23.94
72359;BME280;60317;48.880;-0.862;2023-03-01T06:35:56;101382.13;;;23.77;23.71
72359;BME280;60317;48.880;-0.862;2023-03-01T06:38:23;101371.19;;;23.78;23.78
72359;BME280;60317;48.880;-0.862;2023-03-01T06:40:51;101373.19;;;23.76;23.73
72359;BME280;60317;48.880;-0.862;2023-03-01T06:43:18;101378.00;;;23.41;24.05
72359;BME280;60317;48.880;-0.862;2023-03-01T06:45:46;101369.78;;;23.21;24.06
72359;BME280;60317;48.880;-0.862;2023-03-01T06:48:13;101372.56;;;23.52;23.78
72359;BME280;60317;48.880;-0.862;2023-03-01T06:50:39;101377.41;;;23.58;23.63
72359;BME280;60317;48.880;-0.862;2023-03-01T06:53:06;101378.28;;;23.58;23.62
72359;BME280;60317;48.880;-0.862;2023-03-01T06:55:33;101377.53;;;23.68;23.50
72359;BME280;60317;48.880;-0.862;2023-03-01T06:58:01;101383.41;;;23.62;23.51
72359;BME280;60317;48.880;-0.862;2023-03-01T07:00:29;101377.34;;;23.90;23.12
72359;BME280;60317;48.880;-0.862;2023-03-01T07:02:59;101373.63;;;23.81;23.13
72359;BME280;60317;48.880;-0.862;2023-03-01T07:05:26;101375.47;;;23.60;23.51
72359;BME280;60317;48.880;-0.862;2023-03-01T07:07:53;101373.34;;;23.43;23.66
72359;BME280;60317;48.880;-0.862;2023-03-01T07:10:20;101376.81;;;23.33;23.81
72359;BME280;60317;48.880;-0.862;2023-03-01T07:12:46;101374.13;;;23.54;23.51
72359;BME280;60317;48.880;-0.862;2023-03-01T07:15:13;101374.94;;;23.66;23.44
72359;BME280;60317;48.880;-0.862;2023-03-01T07:17:39;101376.41;;;23.70;23.36
72359;BME280;60317;48.880;-0.862;2023-03-01T07:20:08;101377.06;;;23.84;23.26
72359;BME280;60317;48.880;-0.862;2023-03-01T07:22:35;101372.09;;;23.47;23.50
72359;BME280;60317;48.880;-0.862;2023-03-01T07:25:02;101367.66;;;20.63;25.12
72359;BME280;60317;48.880;-0.862;2023-03-01T07:27:28;101376.47;;;21.84;24.88
72359;BME280;60317;48.880;-0.862;2023-03-01T07:29:55;101378.16;;;22.52;24.85
72359;BME280;60317;48.880;-0.862;2023-03-01T07:32:21;101380.53;;;23.00;24.34
72359;BME280;60317;48.880;-0.862;2023-03-01T07:34:48;101372.16;;;23.36;24.24
72359;BME280;60317;48.880;-0.862;2023-03-01T07:37:16;101379.00;;;23.40;24.55
72359;BME280;60317;48.880;-0.862;2023-03-01T07:39:43;101372.56;;;23.52;24.38
72359;BME280;60317;48.880;-0.862;2023-03-01T07:42:09;101375.72;;;23.57;24.67
72359;BME280;60317;48.880;-0.862;2023-03-01T07:44:36;101374.81;;;23.68;24.43
72359;BME280;60317;48.880;-0.862;2023-03-01T07:47:03;101373.88;;;23.57;24.69
72359;BME280;60317;48.880;-0.862;2023-03-01T07:49:30;101369.91;;;23.73;24.47
72359;BME280;60317;48.880;-0.862;2023-03-01T07:51:57;101369.81;;;23.63;24.66
72359;BME280;60317;48.880;-0.862;2023-03-01T07:54:25;101366.53;;;23.80;24.51
72359;BME280;60317;48.880;-0.862;2023-03-01T07:56:51;101367.81;;;23.86;24.56
72359;BME280;60317;48.880;-0.862;2023-03-01T07:59:18;101371.41;;;23.96;24.64
72359;BME280;60317;48.880;-0.862;2023-03-01T08:01:45;101359.50;;;23.99;24.62
72359;BME280;60317;48.880;-0.862;2023-03-01T08:04:11;101358.38;;;24.01;24.65
72359;BME280;60317;48.880;-0.862;2023-03-01T08:06:38;101357.06;;;23.96;24.87
72359;BME280;60317;48.880;-0.862;2023-03-01T08:09:05;101356.44;;;24.13;24.77
72359;BME280;60317;48.880;-0.862;2023-03-01T08:11:32;101353.41;;;24.07;24.81
72359;BME280;60317;48.880;-0.862;2023-03-01T08:13:59;101354.69;;;24.02;24.99
72359;BME280;60317;48.880;-0.862;2023-03-01T08:16:26;101357.97;;;24.06;24.94
72359;BME280;60317;48.880;-0.862;2023-03-01T08:18:52;101358.97;;;24.05;25.19
72359;BME280;60317;48.880;-0.862;2023-03-01T08:21:19;101349.97;;;23.95;25.07
72359;BME280;60317;48.880;-0.862;2023-03-01T08:23:46;101357.25;;;24.04;25.16
72359;BME280;60317;48.880;-0.862;2023-03-01T08:26:14;101359.50;;;23.99;24.84
72359;BME280;60317;48.880;-0.862;2023-03-01T08:28:43;101358.28;;;23.61;25.12
72359;BME280;60317;48.880;-0.862;2023-03-01T08:31:14;101357.09;;;23.75;25.01
72359;BME280;60317;48.880;-0.862;2023-03-01T08:33:41;101359.88;;;23.85;24.90
72359;BME280;60317;48.880;-0.862;2023-03-01T08:36:08;101361.47;;;23.97;24.74
72359;BME280;60317;48.880;-0.862;2023-03-01T08:38:35;101364.59;;;23.92;24.95
72359;BME280;60317;48.880;-0.862;2023-03-01T08:41:03;101371.25;;;23.88;24.79
72359;BME280;60317;48.880;-0.862;2023-03-01T08:43:29;101367.81;;;23.65;24.69
72359;BME280;60317;48.880;-0.862;2023-03-01T08:45:58;101362.56;;;23.64;24.78
72359;BME280;60317;48.880;-0.862;2023-03-01T08:48:27;101363.06;;;23.37;24.58
72359;BME280;60317;48.880;-0.862;2023-03-01T08:50:53;101365.00;;;23.67;24.86
72359;BME280;60317;48.880;-0.862;2023-03-01T08:53:20;101369.41;;;23.89;24.42
72359;BME280;60317;48.880;-0.862;2023-03-01T08:55:46;101370.19;;;23.79;24.71
72359;BME280;60317;48.880;-0.862;2023-03-01T08:58:16;101374.06;;;23.87;24.52
72359;BME280;60317;48.880;-0.862;2023-03-01T09:00:42;101368.88;;;23.95;24.47
72359;BME280;60317;48.880;-0.862;2023-03-01T09:03:10;101372.16;;;23.98;24.38
72359;BME280;60317;48.880;-0.862;2023-03-01T09:05:37;101365.97;;;23.87;24.46
72359;BME280;60317;48.880;-0.862;2023-03-01T09:08:03;101374.53;;;23.92;24.47
72359;BME280;60317;48.880;-0.862;2023-03-01T09:10:30;101373.22;;;23.86;24.54
72359;BME280;60317;48.880;-0.862;2023-03-01T09:12:57;101367.97;;;23.85;24.56
72359;BME280;60317;48.880;-0.862;2023-03-01T09:15:23;101371.56;;;23.95;24.46
72359;BME280;60317;48.880;-0.862;2023-03-01T09:17:50;101370.88;;;24.02;24.50
72359;BME280;60317;48.880;-0.862;2023-03-01T09:20:18;101375.19;;;24.05;24.44
72359;BME280;60317;48.880;-0.862;2023-03-01T09:22:48;101373.88;;;23.78;24.61
72359;BME280;60317;48.880;-0.862;2023-03-01T09:25:15;101364.13;;;23.66;24.41
72359;BME280;60317;48.880;-0.862;2023-03-01T09:27:42;101368.81;;;23.64;24.63
72359;BME280;60317;48.880;-0.862;2023-03-01T09:30:09;101352.94;;;23.50;25.03
72359;BME280;60317;48.880;-0.862;2023-03-01T09:32:37;101368.50;;;23.78;24.92
72359;BME280;60317;48.880;-0.862;2023-03-01T09:35:04;101352.75;;;23.84;24.80
72359;BME280;60317;48.880;-0.862;2023-03-01T09:37:33;101364.88;;;22.83;23.54
72359;BME280;60317;48.880;-0.862;2023-03-01T09:40:01;101365.84;;;22.27;24.82
72359;BME280;60317;48.880;-0.862;2023-03-01T09:42:28;101363.84;;;23.06;24.11
72359;BME280;60317;48.880;-0.862;2023-03-01T09:44:58;101356.00;;;23.03;23.72
72359;BME280;60317;48.880;-0.862;2023-03-01T09:47:28;101355.63;;;23.08;23.80
72359;BME280;60317;48.880;-0.862;2023-03-01T09:50:03;101357.56;;;23.38;23.61
72359;BME280;60317;48.880;-0.862;2023-03-01T09:52:39;101344.78;;;23.61;23.31
72359;BME280;60317;48.880;-0.862;2023-03-01T09:55:10;101346.13;;;23.46;23.53
72359;BME280;60317;48.880;-0.862;2023-03-01T09:57:43;101339.28;;;23.42;23.48
72359;BME280;60317;48.880;-0.862;2023-03-01T10:00:19;101340.81;;;23.23;23.35
72359;BME280;60317;48.880;-0.862;2023-03-01T10:02:52;101333.88;;;23.21;23.26
72359;BME280;60317;48.880;-0.862;2023-03-01T10:05:34;101327.00;;;22.96;23.36
72359;BME280;60317;48.880;-0.862;2023-03-01T10:08:19;101320.91;;;22.82;23.56
72359;BME280;60317;48.880;-0.862;2023-03-01T10:10:51;101322.22;;;22.88;23.41
72359;BME280;60317;48.880;-0.862;2023-03-01T10:13:22;101322.34;;;22.86;23.45
72359;BME280;60317;48.880;-0.862;2023-03-01T10:15:52;101314.19;;;22.77;23.76
72359;BME280;60317;48.880;-0.862;2023-03-01T10:18:22;101313.28;;;22.87;23.56
72359;BME280;60317;48.880;-0.862;2023-03-01T10:20:53;101313.19;;;22.78;23.72
72359;BME280;60317;48.880;-0.862;2023-03-01T10:23:24;101313.19;;;22.78;23.57
72359;BME280;60317;48.880;-0.862;2023-03-01T10:26:02;101313.22;;;22.67;23.53
72359;BME280;60317;48.880;-0.862;2023-03-01T10:28:43;101316.53;;;22.04;24.42
72359;BME280;60317;48.880;-0.862;2023-03-01T10:31:15;101312.34;;;21.55;25.81
72359;BME280;60317;48.880;-0.862;2023-03-01T10:33:45;101300.75;;;21.77;25.20
72359;BME280;60317;48.880;-0.862;2023-03-01T10:36:11;101299.94;;;22.54;24.43
72359;BME280;60317;48.880;-0.862;2023-03-01T10:38:50;101297.06;;;22.99;23.94
72359;BME280;60317;48.880;-0.862;2023-03-01T10:41:17;101291.66;;;23.31;23.64
72359;BME280;60317;48.880;-0.862;2023-03-01T10:43:45;101297.88;;;23.52;23.42
72359;BME280;60317;48.880;-0.862;2023-03-01T10:46:23;101289.88;;;23.41;23.54
72359;BME280;60317;48.880;-0.862;2023-03-01T10:49:06;101297.28;;;23.07;23.86
72359;BME280;60317;48.880;-0.862;2023-03-01T10:51:33;101281.53;;;22.59;24.29
72359;BME280;60317;48.880;-0.862;2023-03-01T10:54:01;101286.81;;;22.60;24.26
72359;BME280;60317;48.880;-0.862;2023-03-01T10:56:28;101275.69;;;22.43;24.40
72359;BME280;60317;48.880;-0.862;2023-03-01T10:58:58;101281.81;;;22.45;24.25
72359;BME280;60317;48.880;-0.862;2023-03-01T11:01:27;101280.38;;;22.41;24.26
72359;BME280;60317;48.880;-0.862;2023-03-01T11:04:10;101278.31;;;22.33;24.13
72359;BME280;60317;48.880;-0.862;2023-03-01T11:06:39;101277.00;;;22.16;24.64
72359;BME280;60317;48.880;-0.862;2023-03-01T11:09:15;101272.91;;;22.76;24.05
72359;BME280;60317;48.880;-0.862;2023-03-01T11:11:42;101276.09;;;23.23;23.46
72359;BME280;60317;48.880;-0.862;2023-03-01T11:14:15;101269.13;;;23.42;23.13
72359;BME280;60317;48.880;-0.862;2023-03-01T11:17:00;101270.91;;;23.31;23.20
72359;BME280;60317;48.880;-0.862;2023-03-01T11:19:27;101270.19;;;23.29;23.15
72359;BME280;60317;48.880;-0.862;2023-03-01T11:21:58;101262.16;;;23.18;23.41
72359;BME280;60317;48.880;-0.862;2023-03-01T11:24:32;101260.81;;;23.24;23.25
72359;BME280;60317;48.880;-0.862;2023-03-01T11:27:03;101259.53;;;23.28;23.11
72359;BME280;60317;48.880;-0.862;2023-03-01T11:29:35;101256.78;;;23.18;23.38
72359;BME280;60317;48.880;-0.862;2023-03-01T11:32:14;101253.75;;;23.32;23.39
72359;BME280;60317;48.880;-0.862;2023-03-01T11:34:44;101248.72;;;23.49;23.22
72359;BME280;60317;48.880;-0.862;2023-03-01T11:37:21;101246.97;;;23.38;23.27
72359;BME280;60317;48.880;-0.862;2023-03-01T11:39:57;101248.91;;;23.57;23.28
72359;BME280;60317;48.880;-0.862;2023-03-01T11:42:30;101251.22;;;23.41;23.82
72359;BME280;60317;48.880;-0.862;2023-03-01T11:45:09;101242.84;;;23.13;24.08
72359;BME280;60317;48.880;-0.862;2023-03-01T11:47:49;101236.72;;;23.11;24.40
72359;BME280;60317;48.880;-0.862;2023-03-01T11:50:27;101233.66;;;23.46;24.15
72359;BME280;60317;48.880;-0.862;2023-03-01T11:53:04;101234.84;;;23.32;24.47
72359;BME280;60317;48.880;-0.862;2023-03-01T11:55:46;101235.00;;;23.31;24.62
72359;BME280;60317;48.880;-0.862;2023-03-01T11:58:29;101223.81;;;23.66;24.54
72359;BME280;60317;48.880;-0.862;2023-03-01T12:01:08;101226.19;;;23.60;24.87
72359;BME280;60317;48.880;-0.862;2023-03-01T12:03:52;101218.91;;;23.50;25.02
72359;BME280;60317;48.880;-0.862;2023-03-01T12:06:25;101211.97;;;23.27;25.48
72359;BME280;60317;48.880;-0.862;2023-03-01T12:09:02;101214.19;;;23.43;25.12
72359;BME280;60317;48.880;-0.862;2023-03-01T12:11:41;101205.63;;;23.07;24.75
72359;BME280;60317;48.880;-0.862;2023-03-01T12:14:25;101196.28;;;22.37;25.22
72359;BME280;60317;48.880;-0.862;2023-03-01T12:17:09;101202.44;;;22.81;25.08
72359;BME280;60317;48.880;-0.862;2023-03-01T12:19:52;101200.66;;;22.91;25.01
72359;BME280;60317;48.880;-0.862;2023-03-01T12:22:30;101184.81;;;22.77;25.21
72359;BME280;60317;48.880;-0.862;2023-03-01T12:25:14;101190.34;;;22.75;25.05
72359;BME280;60317;48.880;-0.862;2023-03-01T12:27:55;101177.66;;;22.87;24.95
72359;BME280;60317;48.880;-0.862;2023-03-01T12:30:29;101171.50;;;22.75;25.32
72359;BME280;60317;48.880;-0.862;2023-03-01T12:33:11;101174.06;;;22.98;25.98
72359;BME280;60317;48.880;-0.862;2023-03-01T12:35:50;101159.47;;;23.00;25.67
72359;BME280;60317;48.880;-0.862;2023-03-01T12:38:31;101169.50;;;22.98;25.86
72359;BME280;60317;48.880;-0.862;2023-03-01T12:41:21;101162.06;;;22.91;25.77
72359;BME280;60317;48.880;-0.862;2023-03-01T12:44:08;101149.84;;;22.45;25.52
72359;BME280;60317;48.880;-0.862;2023-03-01T12:46:47;101153.84;;;21.30;26.01
72359;BME280;60317;48.880;-0.862;2023-03-01T12:49:21;101152.09;;;20.72;27.00
72359;BME280;60317;48.880;-0.862;2023-03-01T12:51:54;101146.50;;;21.09;26.41